createdAt,value
2016-07-19T00:00:56.202Z,-69
2016-07-19T00:01:56.231Z,-69
2016-07-19T00:02:56.206Z,-69
2016-07-19T00:03:56.173Z,-69
2016-07-19T00:04:56.260Z,-69
2016-07-19T00:05:56.233Z,-68
2016-07-19T00:06:56.215Z,-69
2016-07-19T00:07:56.288Z,-69
2016-07-19T00:08:56.269Z,-68
2016-07-19T00:09:56.251Z,-69
2016-07-19T00:10:56.204Z,-69
2016-07-19T00:11:56.186Z,-69
2016-07-19T00:12:56.279Z,-69
2016-07-19T00:13:56.273Z,-69
2016-07-19T00:14:56.250Z,-69
2016-07-19T00:15:56.162Z,-69
2016-07-19T00:16:56.218Z,-69
2016-07-19T00:17:56.265Z,-69
2016-07-19T00:18:56.225Z,-68
2016-07-19T00:19:56.262Z,-69
2016-07-19T00:20:56.198Z,-69
2016-07-19T00:21:56.248Z,-69
2016-07-19T00:22:56.256Z,-69
2016-07-19T00:23:56.247Z,-69
2016-07-19T00:24:56.264Z,-69
2016-07-19T00:25:56.187Z,-69
2016-07-19T00:26:56.298Z,-69
2016-07-19T00:27:56.275Z,-69
2016-07-19T00:28:56.225Z,-69
2016-07-19T00:29:56.260Z,-69
2016-07-19T00:30:56.264Z,-69
2016-07-19T00:31:56.274Z,-69
2016-07-19T00:32:56.252Z,-69
2016-07-19T00:33:56.237Z,-69
2016-07-19T00:35:21.327Z,-69
2016-07-19T00:35:56.286Z,-69
2016-07-19T00:36:56.184Z,-69
2016-07-19T00:37:56.251Z,-69
2016-07-19T00:38:56.225Z,-69
2016-07-19T00:39:56.279Z,-69
2016-07-19T00:40:56.288Z,-69
2016-07-19T00:41:56.259Z,-69
2016-07-19T00:42:56.326Z,-69
2016-07-19T00:43:56.240Z,-69
2016-07-19T00:44:56.244Z,-69
2016-07-19T00:45:56.258Z,-69
2016-07-19T00:46:56.256Z,-69
2016-07-19T00:47:56.258Z,-69
2016-07-19T00:48:56.267Z,-69
2016-07-19T00:49:56.169Z,-69
2016-07-19T00:50:56.236Z,-69
2016-07-19T00:51:56.254Z,-69
2016-07-19T00:52:56.268Z,-69
2016-07-19T00:53:56.238Z,-69
2016-07-19T00:54:56.202Z,-69
2016-07-19T00:55:56.243Z,-69
2016-07-19T00:56:56.273Z,-69
2016-07-19T00:57:56.222Z,-69
2016-07-19T00:58:56.257Z,-69
2016-07-19T00:59:56.241Z,-69
2016-07-19T01:00:56.279Z,-69
2016-07-19T01:01:56.240Z,-69
2016-07-19T01:02:56.240Z,-69
2016-07-19T01:03:56.259Z,-69
2016-07-19T01:04:56.283Z,-69
2016-07-19T01:05:56.230Z,-69
2016-07-19T01:06:56.232Z,-69
2016-07-19T01:07:56.270Z,-69
2016-07-19T01:08:56.290Z,-69
2016-07-19T01:09:56.226Z,-69
2016-07-19T01:10:56.219Z,-69
2016-07-19T01:11:56.240Z,-69
2016-07-19T01:12:56.248Z,-69
2016-07-19T01:13:56.282Z,-69
2016-07-19T01:14:56.255Z,-69
2016-07-19T01:15:56.296Z,-69
2016-07-19T01:16:56.284Z,-69
2016-07-19T01:17:56.232Z,-69
2016-07-19T01:18:56.276Z,-69
2016-07-19T01:19:56.280Z,-69
2016-07-19T01:20:56.279Z,-69
2016-07-19T01:21:56.241Z,-68
2016-07-19T01:22:56.234Z,-69
2016-07-19T01:23:56.287Z,-69
2016-07-19T01:24:56.225Z,-69
2016-07-19T01:25:56.228Z,-69
2016-07-19T01:26:56.294Z,-69
2016-07-19T01:27:56.213Z,-69
2016-07-19T01:28:56.295Z,-68
2016-07-19T01:29:56.258Z,-69
2016-07-19T01:30:56.230Z,-69
2016-07-19T01:31:56.291Z,-69
2016-07-19T01:32:56.300Z,-69
2016-07-19T01:33:56.281Z,-69
2016-07-19T01:34:56.282Z,-68
2016-07-19T01:35:56.297Z,-68
2016-07-19T01:36:56.286Z,-68
2016-07-19T01:37:56.294Z,-69
2016-07-19T01:38:56.279Z,-69
2016-07-19T01:39:56.278Z,-68
2016-07-19T01:40:56.265Z,-68
2016-07-19T01:41:56.304Z,-68
2016-07-19T01:42:56.272Z,-68
2016-07-19T01:43:56.312Z,-68
2016-07-19T01:44:56.288Z,-68
2016-07-19T01:45:56.287Z,-68
2016-07-19T01:46:56.275Z,-68
2016-07-19T01:47:56.267Z,-69
2016-07-19T01:48:56.298Z,-68
2016-07-19T01:49:56.301Z,-68
2016-07-19T01:50:56.311Z,-68
2016-07-19T01:51:56.319Z,-68
2016-07-19T01:52:56.276Z,-68
2016-07-19T01:53:56.333Z,-68
2016-07-19T01:54:56.350Z,-68
2016-07-19T01:55:56.308Z,-68
2016-07-19T01:56:56.266Z,-68
2016-07-19T01:57:56.243Z,-68
2016-07-19T01:58:56.284Z,-68
2016-07-19T01:59:56.297Z,-68
2016-07-19T02:00:56.344Z,-68
2016-07-19T02:01:56.295Z,-68
2016-07-19T02:02:56.308Z,-68
2016-07-19T02:03:56.323Z,-68
2016-07-19T02:04:56.252Z,-68
2016-07-19T02:05:56.352Z,-68
2016-07-19T02:06:56.236Z,-68
2016-07-19T02:07:56.286Z,-68
2016-07-19T02:08:56.313Z,-68
2016-07-19T02:09:56.297Z,-68
2016-07-19T02:10:56.281Z,-68
2016-07-19T02:11:56.268Z,-68
2016-07-19T02:12:56.264Z,-68
2016-07-19T02:13:56.285Z,-68
2016-07-19T02:14:56.262Z,-68
2016-07-19T02:15:56.322Z,-68
2016-07-19T02:16:56.241Z,-68
2016-07-19T02:17:56.270Z,-70
2016-07-19T02:18:56.275Z,-70
2016-07-19T02:19:56.311Z,-68
2016-07-19T02:20:56.300Z,-68
2016-07-19T02:21:56.320Z,-68
2016-07-19T02:22:56.313Z,-68
2016-07-19T02:23:56.267Z,-68
2016-07-19T02:24:56.302Z,-68
2016-07-19T02:25:56.277Z,-68
2016-07-19T02:26:56.305Z,-68
2016-07-19T02:27:56.317Z,-68
2016-07-19T02:28:56.309Z,-68
2016-07-19T02:29:56.288Z,-68
2016-07-19T02:30:56.307Z,-68
2016-07-19T02:31:56.342Z,-68
2016-07-19T02:32:56.376Z,-68
2016-07-19T02:33:56.358Z,-68
2016-07-19T02:34:56.348Z,-68
2016-07-19T02:35:56.295Z,-68
2016-07-19T02:36:56.299Z,-68
2016-07-19T02:37:56.329Z,-68
2016-07-19T02:38:56.352Z,-68
2016-07-19T02:39:56.311Z,-68
2016-07-19T02:40:56.308Z,-68
2016-07-19T02:41:56.312Z,-68
2016-07-19T02:42:56.260Z,-68
2016-07-19T02:43:56.327Z,-68
2016-07-19T02:45:07.231Z,-68
2016-07-19T02:45:56.391Z,-68
2016-07-19T02:46:56.297Z,-68
2016-07-19T02:47:56.277Z,-68
2016-07-19T02:48:56.299Z,-68
2016-07-19T02:49:56.374Z,-68
2016-07-19T02:50:56.537Z,-68
2016-07-19T02:51:56.229Z,-68
2016-07-19T02:52:56.354Z,-68
2016-07-19T02:53:56.331Z,-68
2016-07-19T02:54:56.319Z,-68
2016-07-19T02:55:56.312Z,-68
2016-07-19T02:56:56.316Z,-68
2016-07-19T02:57:56.367Z,-68
2016-07-19T02:58:56.335Z,-68
2016-07-19T02:59:56.355Z,-68
2016-07-19T03:00:56.319Z,-68
2016-07-19T03:01:56.378Z,-68
2016-07-19T03:02:56.270Z,-68
2016-07-19T03:03:56.269Z,-68
2016-07-19T03:04:56.333Z,-68
2016-07-19T03:05:56.293Z,-68
2016-07-19T03:06:56.315Z,-68
2016-07-19T03:07:56.350Z,-68
2016-07-19T03:08:56.303Z,-68
2016-07-19T03:09:56.341Z,-68
2016-07-19T03:10:56.319Z,-68
2016-07-19T03:11:56.322Z,-68
2016-07-19T03:12:56.359Z,-68
2016-07-19T03:13:56.368Z,-68
2016-07-19T03:14:56.345Z,-68
2016-07-19T03:15:56.332Z,-68
2016-07-19T03:16:56.297Z,-68
2016-07-19T03:17:56.332Z,-68
2016-07-19T03:18:56.312Z,-68
2016-07-19T03:19:56.334Z,-68
2016-07-19T03:20:56.344Z,-68
2016-07-19T03:21:56.289Z,-68
2016-07-19T03:22:56.296Z,-68
2016-07-19T03:23:56.316Z,-68
2016-07-19T03:24:56.309Z,-68
2016-07-19T03:25:56.355Z,-68
2016-07-19T03:26:56.361Z,-68
2016-07-19T03:27:56.299Z,-68
2016-07-19T03:28:56.361Z,-68
2016-07-19T03:29:56.328Z,-68
2016-07-19T03:30:56.339Z,-68
2016-07-19T03:31:56.328Z,-68
2016-07-19T03:32:56.340Z,-68
2016-07-19T03:33:56.309Z,-68
2016-07-19T03:34:56.312Z,-68
2016-07-19T03:35:56.302Z,-68
2016-07-19T03:36:56.325Z,-68
2016-07-19T03:37:56.321Z,-68
2016-07-19T03:38:56.328Z,-68
2016-07-19T03:39:56.260Z,-68
2016-07-19T03:40:56.320Z,-68
2016-07-19T03:41:56.328Z,-68
2016-07-19T03:42:56.361Z,-68
2016-07-19T03:43:56.357Z,-68
2016-07-19T03:44:56.318Z,-68
2016-07-19T03:45:56.282Z,-68
2016-07-19T03:46:56.345Z,-68
2016-07-19T03:47:56.368Z,-68
2016-07-19T03:48:56.363Z,-68
2016-07-19T03:49:56.340Z,-68
2016-07-19T03:50:56.306Z,-68
2016-07-19T03:51:56.294Z,-68
2016-07-19T03:52:56.345Z,-68
2016-07-19T03:53:56.336Z,-68
2016-07-19T03:54:56.335Z,-68
2016-07-19T03:55:56.319Z,-68
2016-07-19T03:56:56.314Z,-68
2016-07-19T03:57:56.354Z,-68
2016-07-19T03:58:56.372Z,-68
2016-07-19T03:59:56.279Z,-68
2016-07-19T04:00:56.355Z,-68
2016-07-19T04:01:56.322Z,-68
2016-07-19T04:02:56.345Z,-68
2016-07-19T04:03:56.348Z,-68
2016-07-19T04:04:56.342Z,-68
2016-07-19T04:05:56.343Z,-68
2016-07-19T04:06:56.360Z,-68
2016-07-19T04:07:56.318Z,-68
2016-07-19T04:08:56.382Z,-68
2016-07-19T04:09:56.385Z,-68
2016-07-19T04:10:56.308Z,-68
2016-07-19T04:11:56.318Z,-68
2016-07-19T04:12:56.379Z,-68
2016-07-19T04:13:56.356Z,-68
2016-07-19T04:14:56.298Z,-68
2016-07-19T04:15:56.364Z,-68
2016-07-19T04:16:56.331Z,-68
2016-07-19T04:17:56.373Z,-68
2016-07-19T04:18:56.360Z,-68
2016-07-19T04:19:56.350Z,-68
2016-07-19T04:20:56.359Z,-68
2016-07-19T04:21:56.332Z,-68
2016-07-19T04:22:56.379Z,-68
2016-07-19T04:23:56.358Z,-68
2016-07-19T04:24:56.366Z,-68
2016-07-19T04:25:56.334Z,-68
2016-07-19T04:26:56.370Z,-68
2016-07-19T04:27:56.376Z,-68
2016-07-19T04:28:56.353Z,-68
2016-07-19T04:29:56.359Z,-68
2016-07-19T04:30:56.334Z,-70
2016-07-19T04:31:56.324Z,-70
2016-07-19T04:32:56.318Z,-70
2016-07-19T04:33:56.341Z,-68
2016-07-19T04:34:56.388Z,-70
2016-07-19T04:35:56.358Z,-69
2016-07-19T04:36:56.355Z,-67
2016-07-19T04:37:56.368Z,-69
2016-07-19T04:38:56.389Z,-69
2016-07-19T04:39:56.332Z,-69
2016-07-19T04:40:56.400Z,-67
2016-07-19T04:41:56.372Z,-69
2016-07-19T04:42:56.430Z,-69
2016-07-19T04:43:56.364Z,-69
2016-07-19T04:44:56.313Z,-69
2016-07-19T04:45:56.362Z,-67
2016-07-19T04:46:56.401Z,-67
2016-07-19T04:47:56.384Z,-69
2016-07-19T04:48:56.426Z,-69
2016-07-19T04:49:56.382Z,-67
2016-07-19T04:50:56.363Z,-70
2016-07-19T04:51:56.381Z,-69
2016-07-19T04:52:56.439Z,-70
2016-07-19T04:53:56.340Z,-70
2016-07-19T04:54:56.389Z,-69
2016-07-19T04:55:56.407Z,-69
2016-07-19T04:56:56.343Z,-69
2016-07-19T04:57:56.362Z,-69
2016-07-19T05:10:57.053Z,-69
2016-07-19T05:11:14.731Z,-69
2016-07-19T05:12:14.081Z,-69
2016-07-19T05:13:14.125Z,-69
2016-07-19T05:14:15.037Z,-69
2016-07-19T05:15:14.081Z,-69
2016-07-19T05:16:14.096Z,-69
2016-07-19T05:17:15.021Z,-69
2016-07-19T05:18:14.103Z,-69
2016-07-19T05:19:14.084Z,-69
2016-07-19T05:20:14.132Z,-69
2016-07-19T05:21:14.094Z,-69
2016-07-19T05:22:14.106Z,-69
2016-07-19T05:23:14.071Z,-70
2016-07-19T05:24:14.159Z,-70
2016-07-19T05:25:14.060Z,-69
2016-07-19T05:26:14.115Z,-69
2016-07-19T05:27:14.110Z,-70
2016-07-19T05:28:14.070Z,-69
2016-07-19T05:29:14.095Z,-70
2016-07-19T05:30:14.107Z,-70
2016-07-19T05:31:14.112Z,-69
2016-07-19T05:32:14.115Z,-69
2016-07-19T05:33:14.062Z,-70
2016-07-19T05:34:14.109Z,-70
2016-07-19T05:35:14.149Z,-69
2016-07-19T05:36:14.308Z,-69
2016-07-19T05:37:14.165Z,-70
2016-07-19T05:38:14.124Z,-70
2016-07-19T05:39:14.113Z,-70
2016-07-19T05:40:14.156Z,-69
2016-07-19T05:41:14.162Z,-69
2016-07-19T05:42:14.154Z,-69
2016-07-19T05:43:14.129Z,-70
2016-07-19T05:44:14.125Z,-70
2016-07-19T05:45:14.122Z,-70
2016-07-19T05:46:14.108Z,-69
2016-07-19T05:47:14.131Z,-70
2016-07-19T05:48:14.146Z,-70
2016-07-19T05:49:14.174Z,-69
2016-07-19T05:50:14.164Z,-70
2016-07-19T05:51:14.113Z,-70
2016-07-19T05:52:15.135Z,-69
2016-07-19T05:53:14.118Z,-70
2016-07-19T05:54:14.089Z,-70
2016-07-19T05:55:14.089Z,-70
2016-07-19T05:56:14.174Z,-70
2016-07-19T05:57:14.162Z,-69
2016-07-19T05:58:14.135Z,-69
2016-07-19T05:59:14.103Z,-67
2016-07-19T06:00:14.143Z,-70
2016-07-19T06:01:14.090Z,-69
2016-07-19T06:02:14.151Z,-70
2016-07-19T06:03:14.451Z,-70
2016-07-19T06:04:14.136Z,-70
2016-07-19T06:05:14.154Z,-67
2016-07-19T06:06:14.150Z,-70
2016-07-19T06:07:14.153Z,-70
2016-07-19T06:08:14.144Z,-68
2016-07-19T06:09:14.129Z,-68
2016-07-19T06:10:14.114Z,-69
2016-07-19T06:11:14.350Z,-70
2016-07-19T06:12:14.123Z,-70
2016-07-19T06:13:14.121Z,-68
2016-07-19T06:14:14.130Z,-68
2016-07-19T06:15:14.729Z,-70
2016-07-19T06:16:14.687Z,-70
2016-07-19T06:17:14.863Z,-70
2016-07-19T06:18:14.850Z,-70
2016-07-19T06:19:15.162Z,-70
2016-07-19T06:20:14.169Z,-70
2016-07-19T06:21:14.162Z,-70
2016-07-19T06:22:14.119Z,-68
2016-07-19T06:23:14.388Z,-70
2016-07-19T06:24:14.151Z,-70
2016-07-19T06:25:14.146Z,-70
2016-07-19T06:26:14.127Z,-70
2016-07-19T06:27:14.149Z,-70
2016-07-19T06:28:14.076Z,-70
2016-07-19T06:29:14.210Z,-69
2016-07-19T06:30:14.333Z,-69
2016-07-19T06:31:14.333Z,-71
2016-07-19T06:32:15.038Z,-71
2016-07-19T06:33:14.119Z,-69
2016-07-19T06:34:14.141Z,-71
2016-07-19T06:35:14.269Z,-70
2016-07-19T06:36:14.200Z,-70
2016-07-19T06:37:14.113Z,-68
2016-07-19T06:38:14.149Z,-68
2016-07-19T06:39:14.171Z,-71
2016-07-19T06:40:14.536Z,-71
2016-07-19T06:41:14.409Z,-70
2016-07-19T06:42:14.296Z,-70
2016-07-19T06:43:16.893Z,-70
2016-07-19T06:44:14.198Z,-69
2016-07-19T06:45:15.129Z,-69
2016-07-19T06:46:15.418Z,-69
2016-07-19T06:47:14.654Z,-69
2016-07-19T06:48:16.281Z,-69
2016-07-19T06:49:18.739Z,-71
2016-07-19T06:50:14.318Z,-69
2016-07-19T06:51:14.709Z,-71
2016-07-19T06:52:16.566Z,-71
2016-07-19T06:54:14.208Z,-69
2016-07-19T06:55:14.188Z,-69
2016-07-19T06:56:13.965Z,-70
2016-07-19T06:57:14.785Z,-69
2016-07-19T06:58:14.188Z,-70
2016-07-19T06:59:14.148Z,-70
2016-07-19T07:00:14.346Z,-70
2016-07-19T07:01:14.069Z,-69
2016-07-19T07:02:14.029Z,-70
2016-07-19T07:03:13.996Z,-69
2016-07-19T07:04:14.098Z,-69
2016-07-19T07:05:14.074Z,-68
2016-07-19T07:06:17.551Z,-72
2016-07-19T07:07:14.145Z,-70
2016-07-19T07:08:14.050Z,-69
2016-07-19T07:09:14.189Z,-68
2016-07-19T07:10:14.263Z,-70
2016-07-19T07:11:14.271Z,-70
2016-07-19T07:12:16.608Z,-70
2016-07-19T07:13:14.399Z,-70
2016-07-19T07:14:14.351Z,-70
2016-07-19T07:15:14.611Z,-69
2016-07-19T07:16:14.393Z,-69
2016-07-19T07:17:14.308Z,-70
2016-07-19T07:18:14.469Z,-70
2016-07-19T07:19:14.442Z,-70
2016-07-19T07:20:14.350Z,-70
2016-07-19T07:21:15.089Z,-72
2016-07-19T07:22:14.495Z,-70
2016-07-19T07:23:14.504Z,-69
2016-07-19T07:24:14.497Z,-69
2016-07-19T07:25:14.574Z,-69
2016-07-19T07:26:14.402Z,-69
2016-07-19T07:27:14.310Z,-69
2016-07-19T07:28:14.416Z,-69
2016-07-19T07:29:14.356Z,-69
2016-07-19T07:30:14.280Z,-69
2016-07-19T07:31:14.258Z,-70
2016-07-19T07:32:14.314Z,-70
2016-07-19T07:33:14.325Z,-69
2016-07-19T07:34:14.433Z,-69
2016-07-19T07:35:14.210Z,-70
2016-07-19T07:36:14.311Z,-70
2016-07-19T07:37:14.434Z,-69
2016-07-19T07:38:14.296Z,-70
2016-07-19T07:39:14.232Z,-70
2016-07-19T07:40:14.574Z,-72
2016-07-19T07:41:15.437Z,-69
2016-07-19T07:42:14.371Z,-69
2016-07-19T07:43:14.601Z,-69
2016-07-19T07:44:14.527Z,-71
2016-07-19T07:45:14.418Z,-68
2016-07-19T07:46:14.330Z,-69
2016-07-19T07:47:14.478Z,-69
2016-07-19T07:48:14.463Z,-69
2016-07-19T07:49:14.314Z,-72
2016-07-19T07:50:14.410Z,-69
2016-07-19T07:51:14.377Z,-69
2016-07-19T07:52:14.431Z,-69
2016-07-19T07:53:14.619Z,-70
2016-07-19T07:54:14.207Z,-69
2016-07-19T07:55:14.236Z,-73
2016-07-19T07:56:14.199Z,-70
2016-07-19T07:57:14.184Z,-70
2016-07-19T07:58:14.550Z,-70
2016-07-19T07:59:14.191Z,-70
2016-07-19T08:00:14.306Z,-70
2016-07-19T08:01:14.240Z,-70
2016-07-19T08:02:14.431Z,-70
2016-07-19T08:03:14.173Z,-71
2016-07-19T08:04:14.196Z,-70
2016-07-19T08:11:42.962Z,-68
2016-07-19T08:12:00.142Z,-68
2016-07-19T08:13:00.021Z,-68
2016-07-19T08:14:00.049Z,-71
2016-07-19T08:14:59.989Z,-71
2016-07-19T08:16:00.003Z,-68
2016-07-19T08:17:00.560Z,-69
2016-07-19T08:17:59.971Z,-69
2016-07-19T08:19:00.060Z,-68
2016-07-19T08:20:00.934Z,-69
2016-07-19T08:21:00.000Z,-71
2016-07-19T08:22:00.014Z,-69
2016-07-19T08:23:00.124Z,-71
2016-07-19T08:23:59.980Z,-69
2016-07-19T08:25:00.024Z,-69
2016-07-19T08:25:59.964Z,-69
2016-07-19T08:27:00.017Z,-69
2016-07-19T08:28:00.053Z,-69
2016-07-19T08:29:00.073Z,-71
2016-07-19T08:30:00.111Z,-76
2016-07-19T08:31:00.089Z,-71
2016-07-19T08:32:00.082Z,-72
2016-07-19T08:33:00.013Z,-71
2016-07-19T08:34:00.022Z,-71
2016-07-19T08:35:00.001Z,-71
2016-07-19T08:36:00.076Z,-69
2016-07-19T08:37:00.033Z,-69
2016-07-19T08:38:00.049Z,-71
2016-07-19T08:39:00.084Z,-71
2016-07-19T08:40:00.076Z,-69
2016-07-19T08:41:00.058Z,-69
2016-07-19T08:42:00.060Z,-69
2016-07-19T08:43:00.047Z,-69
2016-07-19T08:44:00.018Z,-69
2016-07-19T08:45:00.075Z,-71
2016-07-19T08:46:00.056Z,-71
2016-07-19T08:47:00.007Z,-69
2016-07-19T08:48:00.034Z,-69
2016-07-19T08:48:59.997Z,-71
2016-07-19T08:50:00.101Z,-74
2016-07-19T08:51:00.053Z,-72
2016-07-19T08:52:00.261Z,-71
2016-07-19T08:53:00.058Z,-71
2016-07-19T08:54:00.744Z,-71
2016-07-19T08:55:00.031Z,-71
2016-07-19T08:56:00.077Z,-71
2016-07-19T08:57:00.100Z,-71
2016-07-19T08:58:00.078Z,-69
2016-07-19T08:59:00.054Z,-69
2016-07-19T09:00:00.059Z,-72
2016-07-19T09:01:00.056Z,-71
2016-07-19T09:02:00.132Z,-71
2016-07-19T09:03:00.057Z,-71
2016-07-19T09:04:00.060Z,-71
2016-07-19T09:04:59.870Z,-71
2016-07-19T09:06:00.038Z,-71
2016-07-19T09:07:00.096Z,-72
2016-07-19T09:08:00.052Z,-71
2016-07-19T09:09:00.104Z,-71
2016-07-19T09:10:00.286Z,-72
2016-07-19T09:11:00.073Z,-71
2016-07-19T09:12:00.049Z,-71
2016-07-19T09:13:00.092Z,-71
2016-07-19T09:14:00.040Z,-71
2016-07-19T09:15:00.029Z,-71
2016-07-19T09:16:00.110Z,-72
2016-07-19T09:17:00.367Z,-73
2016-07-19T09:18:00.048Z,-71
2016-07-19T09:19:04.153Z,-73
2016-07-19T09:20:00.044Z,-71
2016-07-19T09:21:00.072Z,-71
2016-07-19T09:22:00.047Z,-71
2016-07-19T09:23:00.062Z,-71
2016-07-19T09:24:00.066Z,-73
2016-07-19T09:25:00.060Z,-71
2016-07-19T09:26:00.005Z,-71
2016-07-19T09:27:00.056Z,-71
2016-07-19T09:28:00.113Z,-71
2016-07-19T09:29:00.099Z,-71
2016-07-19T09:30:00.091Z,-71
2016-07-19T09:31:01.745Z,-75
2016-07-19T09:32:00.060Z,-72
2016-07-19T09:33:00.120Z,-70
2016-07-19T09:34:00.030Z,-70
2016-07-19T09:35:00.070Z,-70
2016-07-19T09:36:00.070Z,-71
2016-07-19T09:37:00.027Z,-70
2016-07-19T09:38:00.055Z,-71
2016-07-19T09:39:00.072Z,-70
2016-07-19T09:40:02.669Z,-70
2016-07-19T09:41:00.084Z,-70
2016-07-19T09:42:00.070Z,-70
2016-07-19T09:43:00.089Z,-71
2016-07-19T09:44:01.944Z,-70
2016-07-19T09:45:00.098Z,-70
2016-07-19T09:46:00.112Z,-70
2016-07-19T09:47:03.586Z,-70
2016-07-19T09:48:00.085Z,-70
2016-07-19T09:49:00.142Z,-70
2016-07-19T09:50:00.146Z,-70
2016-07-19T09:51:00.260Z,-71
2016-07-19T09:52:00.564Z,-73
2016-07-19T09:53:00.174Z,-72
2016-07-19T09:54:00.072Z,-70
2016-07-19T09:55:00.115Z,-70
2016-07-19T09:56:00.030Z,-70
2016-07-19T09:57:00.077Z,-72
2016-07-19T09:58:00.114Z,-70
2016-07-19T09:59:00.102Z,-70
2016-07-19T10:00:00.227Z,-72
2016-07-19T10:01:00.122Z,-72
2016-07-19T10:02:00.618Z,-72
2016-07-19T10:03:00.051Z,-70
2016-07-19T10:04:00.127Z,-69
2016-07-19T10:05:00.108Z,-69
2016-07-19T10:06:00.073Z,-69
2016-07-19T10:07:00.202Z,-72
2016-07-19T10:08:00.336Z,-71
2016-07-19T10:09:00.161Z,-69
2016-07-19T10:10:00.128Z,-69
2016-07-19T10:11:00.149Z,-69
2016-07-19T10:12:00.040Z,-71
2016-07-19T10:13:00.097Z,-72
2016-07-19T10:14:00.080Z,-69
2016-07-19T10:15:00.190Z,-72
2016-07-19T10:16:00.097Z,-71
2016-07-19T10:17:00.066Z,-72
2016-07-19T10:18:00.168Z,-71
2016-07-19T10:19:00.084Z,-71
2016-07-19T10:20:00.121Z,-71
2016-07-19T10:21:00.051Z,-71
2016-07-19T10:22:00.121Z,-69
2016-07-19T10:23:00.104Z,-69
2016-07-19T10:24:00.140Z,-71
2016-07-19T10:25:00.131Z,-71
2016-07-19T10:26:00.196Z,-71
2016-07-19T10:27:00.168Z,-69
2016-07-19T10:28:00.098Z,-71
2016-07-19T10:29:00.157Z,-69
2016-07-19T10:30:00.149Z,-71
2016-07-19T10:31:00.090Z,-69
2016-07-19T10:32:00.125Z,-69
2016-07-19T10:33:00.153Z,-72
2016-07-19T10:34:00.099Z,-71
2016-07-19T10:35:00.112Z,-71
2016-07-19T10:36:00.090Z,-71
2016-07-19T10:37:00.152Z,-71
2016-07-19T10:38:00.086Z,-71
2016-07-19T10:39:00.163Z,-71
2016-07-19T10:40:00.136Z,-71
2016-07-19T10:41:00.147Z,-71
2016-07-19T10:42:00.149Z,-71
2016-07-19T10:43:00.137Z,-71
2016-07-19T10:44:00.167Z,-71
2016-07-19T10:45:00.150Z,-71
2016-07-19T10:46:00.123Z,-70
2016-07-19T10:47:00.380Z,-71
2016-07-19T10:48:00.190Z,-69
2016-07-19T10:49:00.101Z,-69
2016-07-19T10:50:00.173Z,-70
2016-07-19T10:51:00.086Z,-69
2016-07-19T10:52:01.148Z,-72
2016-07-19T10:53:00.098Z,-70
2016-07-19T10:54:00.095Z,-72
2016-07-19T10:55:00.278Z,-70
2016-07-19T10:56:00.106Z,-70
2016-07-19T10:57:00.228Z,-70
2016-07-19T10:58:00.256Z,-70
2016-07-19T10:59:00.179Z,-70
2016-07-19T11:00:00.246Z,-70
2016-07-19T11:01:00.153Z,-70
2016-07-19T11:02:00.272Z,-70
2016-07-19T11:03:00.180Z,-70
2016-07-19T11:04:00.128Z,-70
2016-07-19T11:05:00.148Z,-72
2016-07-19T11:06:00.830Z,-72
2016-07-19T11:07:13.235Z,-72
2016-07-19T11:08:00.147Z,-70
2016-07-19T11:09:00.247Z,-72
2016-07-19T11:10:00.202Z,-70
2016-07-19T11:11:00.177Z,-70
2016-07-19T11:12:00.171Z,-70
2016-07-19T11:13:00.172Z,-70
2016-07-19T11:14:00.211Z,-70
2016-07-19T11:15:00.166Z,-72
2016-07-19T11:16:00.248Z,-70
2016-07-19T11:17:00.171Z,-70
2016-07-19T11:18:00.204Z,-70
2016-07-19T11:19:00.185Z,-70
2016-07-19T11:20:00.125Z,-69
2016-07-19T11:21:00.136Z,-69
2016-07-19T11:22:00.108Z,-69
2016-07-19T11:23:00.128Z,-69
2016-07-19T11:24:00.151Z,-70
2016-07-19T11:25:00.087Z,-70
2016-07-19T11:26:00.171Z,-70
2016-07-19T11:27:00.108Z,-70
2016-07-19T11:28:00.470Z,-70
2016-07-19T11:29:00.146Z,-70
2016-07-19T11:30:00.271Z,-72
2016-07-19T11:31:00.249Z,-70
2016-07-19T11:32:00.197Z,-70
2016-07-19T11:33:00.215Z,-70
2016-07-19T11:34:00.176Z,-70
2016-07-19T11:35:00.183Z,-70
2016-07-19T11:36:00.172Z,-70
2016-07-19T11:37:00.195Z,-70
2016-07-19T11:38:00.199Z,-71
2016-07-19T11:39:00.153Z,-72
2016-07-19T11:40:00.161Z,-70
2016-07-19T11:41:00.182Z,-70
2016-07-19T11:42:00.227Z,-72
2016-07-19T11:43:00.185Z,-69
2016-07-19T11:44:00.411Z,-71
2016-07-19T11:45:00.191Z,-71
2016-07-19T11:46:00.150Z,-71
2016-07-19T11:47:00.149Z,-71
2016-07-19T11:48:00.153Z,-72
2016-07-19T11:49:00.180Z,-69
2016-07-19T11:50:00.172Z,-71
2016-07-19T11:51:00.201Z,-71
2016-07-19T11:52:01.535Z,-71
2016-07-19T11:53:00.168Z,-71
2016-07-19T11:54:00.230Z,-71
2016-07-19T11:55:16.593Z,-71
2016-07-19T11:56:12.199Z,-71
2016-07-19T11:57:01.364Z,-71
2016-07-19T11:58:00.817Z,-73
2016-07-19T11:59:00.888Z,-72
2016-07-19T12:00:00.315Z,-73
2016-07-19T12:01:00.294Z,-71
2016-07-19T12:02:00.197Z,-71
2016-07-19T12:03:00.513Z,-71
2016-07-19T12:04:00.198Z,-72
2016-07-19T12:05:00.203Z,-70
2016-07-19T12:06:00.193Z,-70
2016-07-19T12:07:00.223Z,-72
2016-07-19T12:08:00.187Z,-69
2016-07-19T12:09:00.174Z,-69
2016-07-19T12:10:00.180Z,-70
2016-07-19T12:11:00.237Z,-69
2016-07-19T12:12:00.315Z,-71
2016-07-19T12:13:00.203Z,-72
2016-07-19T12:14:00.255Z,-69
2016-07-19T12:15:00.246Z,-69
2016-07-19T12:16:00.300Z,-72
2016-07-19T12:17:20.365Z,-73
2016-07-19T12:18:00.553Z,-70
2016-07-19T12:19:00.202Z,-70
2016-07-19T12:20:00.272Z,-70
2016-07-19T12:21:00.283Z,-70
2016-07-19T12:22:00.207Z,-72
2016-07-19T12:23:00.158Z,-70
2016-07-19T12:24:00.240Z,-70
2016-07-19T12:25:00.221Z,-72
2016-07-19T12:26:00.267Z,-70
2016-07-19T12:27:00.219Z,-70
2016-07-19T12:28:00.220Z,-70
2016-07-19T12:29:00.337Z,-71
2016-07-19T12:30:00.216Z,-71
2016-07-19T12:31:01.869Z,-71
2016-07-19T12:32:01.227Z,-71
2016-07-19T12:33:01.665Z,-71
2016-07-19T12:34:02.411Z,-71
2016-07-19T12:35:00.278Z,-71
2016-07-19T12:36:00.233Z,-71
2016-07-19T12:37:01.913Z,-71
2016-07-19T12:38:00.383Z,-71
2016-07-19T12:39:02.528Z,-71
2016-07-19T12:40:00.362Z,-71
2016-07-19T12:41:00.271Z,-71
2016-07-19T12:42:00.208Z,-71
2016-07-19T12:43:13.705Z,-71
2016-07-19T12:44:11.548Z,-73
2016-07-19T12:45:00.201Z,-71
2016-07-19T12:46:01.545Z,-73
2016-07-19T12:47:32.763Z,-72
2016-07-19T12:48:00.341Z,-73
2016-07-19T12:49:00.219Z,-73
2016-07-19T12:50:00.200Z,-70
2016-07-19T12:51:00.272Z,-70
2016-07-19T12:52:00.187Z,-70
2016-07-19T12:53:02.306Z,-73
2016-07-19T12:54:01.993Z,-72
2016-07-19T12:55:00.204Z,-71
2016-07-19T12:56:00.195Z,-73
2016-07-19T12:57:00.214Z,-71
2016-07-19T12:59:00.211Z,-70
2016-07-19T13:00:00.274Z,-70
2016-07-19T13:01:00.247Z,-70
2016-07-19T13:02:00.231Z,-70
2016-07-19T13:03:00.210Z,-70
2016-07-19T13:04:00.314Z,-70
2016-07-19T13:05:00.282Z,-72
2016-07-19T13:06:00.263Z,-70
2016-07-19T13:07:00.235Z,-70
2016-07-19T13:08:00.210Z,-70
2016-07-19T13:09:00.188Z,-70
2016-07-19T13:10:00.202Z,-70
2016-07-19T13:11:00.219Z,-70
2016-07-19T13:12:00.242Z,-72
2016-07-19T13:13:00.289Z,-72
2016-07-19T13:14:00.298Z,-70
2016-07-19T13:15:00.214Z,-70
2016-07-19T13:16:00.189Z,-72
2016-07-19T13:17:00.212Z,-70
2016-07-19T13:18:00.257Z,-70
2016-07-19T13:19:00.248Z,-70
2016-07-19T13:20:01.699Z,-72
2016-07-19T13:21:00.251Z,-70
2016-07-19T13:22:00.257Z,-72
2016-07-19T13:23:00.213Z,-70
2016-07-19T13:24:00.238Z,-72
2016-07-19T13:25:00.269Z,-70
2016-07-19T13:26:00.231Z,-72
2016-07-19T13:27:00.254Z,-72
2016-07-19T13:28:00.254Z,-72
2016-07-19T13:29:00.315Z,-72
2016-07-19T13:30:03.315Z,-72
2016-07-19T13:31:00.274Z,-72
2016-07-19T13:32:00.362Z,-72
2016-07-19T13:33:00.187Z,-72
2016-07-19T13:34:00.322Z,-70
2016-07-19T13:35:00.280Z,-72
2016-07-19T13:36:00.184Z,-72
2016-07-19T13:37:00.239Z,-72
2016-07-19T13:38:00.247Z,-72
2016-07-19T13:39:00.247Z,-72
2016-07-19T13:40:00.204Z,-72
2016-07-19T13:41:00.191Z,-72
2016-07-19T13:42:00.362Z,-71
2016-07-19T13:43:00.235Z,-72
2016-07-19T13:44:00.310Z,-72
2016-07-19T13:45:00.318Z,-72
2016-07-19T13:46:00.259Z,-72
2016-07-19T13:47:00.293Z,-72
2016-07-19T13:48:00.247Z,-72
2016-07-19T13:49:00.279Z,-72
2016-07-19T13:50:00.386Z,-71
2016-07-19T13:51:01.483Z,-72
2016-07-19T13:52:00.286Z,-72
2016-07-19T13:53:00.295Z,-72
2016-07-19T13:54:00.334Z,-71
2016-07-19T13:55:01.535Z,-71
2016-07-19T13:56:00.388Z,-72
2016-07-19T13:57:01.975Z,-71
2016-07-19T13:58:00.419Z,-71
2016-07-19T13:59:07.562Z,-71
2016-07-19T14:00:05.536Z,-72
2016-07-19T14:01:00.525Z,-72
2016-07-19T14:02:00.256Z,-72
2016-07-19T14:03:00.261Z,-72
2016-07-19T14:04:00.233Z,-72
2016-07-19T14:05:28.864Z,-72
2016-07-19T14:06:00.324Z,-72